Time;durP1;ratioP1;P1;durP2;ratioP2;P2;SDS_P1;SDS_P2;PMS_P1;PMS_P2;Temp;Humidity;BMP_temperature;BMP_pressure;BME280_temperature;BME280_humidity;BME280_pressure;Samples;Min_cycle;Max_cycle;Signal;HPM_P1;HPM_P2
2023/08/08 00:02:05;;;;;;;8.20;2.50;;;;;;;13.71;86.14;99710.45;223394;1265;141346;-86
2023/08/08 00:07:06;;;;;;;10.30;3.10;;;;;;;13.69;86.11;99719.32;223907;1267;139082;-87
2023/08/08 00:12:07;;;;;;;10.80;2.40;;;;;;;13.68;86.50;99723.77;223378;1265;141295;-87
2023/08/08 00:17:07;;;;;;;10.40;2.20;;;;;;;13.67;86.74;99730.71;224046;1265;96263;-86
2023/08/08 00:22:08;;;;;;;12.20;3.20;;;;;;;13.64;86.89;99736.21;223384;1264;141263;-86
2023/08/08 00:27:08;;;;;;;10.80;2.90;;;;;;;13.61;87.06;99746.20;223819;1265;139749;-88
2023/08/08 00:32:09;;;;;;;9.60;2.40;;;;;;;13.61;87.35;99751.34;223391;1265;141997;-87
2023/08/08 00:37:09;;;;;;;12.90;2.60;;;;;;;13.61;87.76;99746.27;223980;1266;139116;-89
2023/08/08 00:42:10;;;;;;;8.20;2.40;;;;;;;13.63;88.14;99744.12;223270;1265;143961;-87
2023/08/08 00:47:11;;;;;;;7.90;2.40;;;;;;;13.66;89.11;99742.42;224007;1265;95798;-88
2023/08/08 00:52:11;;;;;;;8.90;2.40;;;;;;;13.68;88.82;99741.38;223381;1265;142063;-86
2023/08/08 00:57:12;;;;;;;8.40;2.50;;;;;;;13.73;88.87;99746.46;223826;1265;138725;-87
2023/08/08 01:02:12;;;;;;;9.50;2.50;;;;;;;13.79;88.59;99742.27;223416;1265;142774;-88
2023/08/08 01:07:24;;;;;;;10.20;2.30;;;;;;;13.83;88.61;99739.92;223961;1265;138656;-87
2023/08/08 01:12:26;;;;;;;10.20;2.40;;;;;;;13.88;88.72;99738.75;223383;1265;142358;-87
2023/08/08 01:17:27;;;;;;;7.40;2.30;;;;;;;13.91;88.96;99739.02;223878;1265;139238;-90
2023/08/08 01:22:36;;;;;;;9.00;3.00;;;;;;;13.96;88.87;99734.92;223506;1265;140974;-87
2023/08/08 01:27:37;;;;;;;10.40;2.40;;;;;;;14.00;88.97;99729.59;223912;1265;138889;-87
2023/08/08 01:32:40;;;;;;;7.10;2.40;;;;;;;13.99;89.03;99730.77;223429;1265;140806;-87
2023/08/08 01:37:50;;;;;;;8.60;2.80;;;;;;;13.99;89.28;99729.83;223928;1265;139310;-86
2023/08/08 01:42:52;;;;;;;10.60;2.70;;;;;;;13.99;88.90;99729.20;223452;1264;140707;-89
2023/08/08 01:47:53;;;;;;;8.50;2.50;;;;;;;13.98;89.10;99727.23;223898;1265;139936;-88
2023/08/08 01:52:54;;;;;;;8.70;2.40;;;;;;;13.95;88.96;99727.20;223525;1265;141193;-89
2023/08/08 01:57:54;;;;;;;8.00;2.40;;;;;;;13.92;89.04;99725.73;223960;1265;138958;-87
2023/08/08 02:02:55;;;;;;;6.80;2.10;;;;;;;13.88;89.30;99726.42;223481;1264;140987;-87
2023/08/08 02:07:55;;;;;;;8.50;2.40;;;;;;;13.83;89.37;99733.98;223975;1265;138706;-89
2023/08/08 02:12:56;;;;;;;8.90;2.30;;;;;;;13.80;89.50;99733.80;223244;1265;141587;-87
2023/08/08 02:17:57;;;;;;;6.50;2.40;;;;;;;13.77;89.77;99741.02;224014;1265;138891;-91
2023/08/08 02:22:57;;;;;;;7.70;2.60;;;;;;;13.75;90.13;99743.75;223520;1265;140264;-88
2023/08/08 02:27:58;;;;;;;7.70;2.60;;;;;;;13.73;90.21;99739.81;223810;1264;139437;-87
2023/08/08 02:32:58;;;;;;;9.80;2.60;;;;;;;13.71;90.41;99742.21;223406;1265;141598;-87
2023/08/08 02:37:59;;;;;;;11.10;2.40;;;;;;;13.70;90.73;99741.50;223972;1265;138888;-89
2023/08/08 02:42:59;;;;;;;12.40;3.10;;;;;;;13.67;90.97;99737.83;223274;1265;140669;-85
2023/08/08 02:48:00;;;;;;;7.70;2.60;;;;;;;13.69;91.08;99743.90;223810;1265;139342;-86
2023/08/08 02:53:01;;;;;;;7.20;2.50;;;;;;;13.67;91.28;99753.33;223448;1265;140465;-89
2023/08/08 02:58:01;;;;;;;7.70;2.40;;;;;;;13.64;91.61;99764.42;223922;1265;138641;-89
2023/08/08 03:03:02;;;;;;;8.40;3.00;;;;;;;13.60;91.98;99764.07;223462;1264;143139;-89
2023/08/08 03:08:03;;;;;;;8.60;2.50;;;;;;;13.56;92.38;99767.98;223844;1265;139316;-89
2023/08/08 03:13:04;;;;;;;8.70;2.60;;;;;;;13.51;92.71;99772.39;223359;1265;140195;-86
2023/08/08 03:18:05;;;;;;;12.10;4.20;;;;;;;13.48;93.09;99772.98;223996;1264;138931;-87
2023/08/08 03:23:05;;;;;;;10.00;3.10;;;;;;;13.44;93.34;99779.02;223532;1264;141238;-87
2023/08/08 03:28:06;;;;;;;11.40;2.90;;;;;;;13.40;93.74;99779.94;223931;1265;138639;-88
2023/08/08 03:33:06;;;;;;;8.40;2.50;;;;;;;13.34;94.18;99781.10;223357;1264;140604;-86
2023/08/08 03:38:07;;;;;;;8.10;2.70;;;;;;;13.31;94.63;99779.41;223999;1264;138963;-88
2023/08/08 03:43:08;;;;;;;10.90;3.10;;;;;;;13.26;95.03;99783.88;223482;1265;141902;-88
2023/08/08 03:48:08;;;;;;;9.30;3.70;;;;;;;13.21;95.60;99785.98;223856;1264;138805;-87
2023/08/08 03:53:09;;;;;;;7.30;2.80;;;;;;;13.19;95.57;99788.36;223490;1265;139754;-86
2023/08/08 03:58:09;;;;;;;8.10;3.10;;;;;;;13.18;95.89;99793.03;224064;1265;139130;-87
2023/08/08 04:03:10;;;;;;;11.30;3.40;;;;;;;13.16;95.93;99795.20;223468;1264;141208;-87
2023/08/08 04:08:10;;;;;;;7.40;3.00;;;;;;;13.15;96.01;99800.95;223920;1265;139438;-86
2023/08/08 04:13:11;;;;;;;8.20;2.40;;;;;;;13.13;95.95;99804.85;223330;1265;140344;-87
2023/08/08 04:18:12;;;;;;;9.20;2.40;;;;;;;13.12;96.06;99810.21;223972;1265;140045;-89
2023/08/08 04:23:13;;;;;;;8.90;2.90;;;;;;;13.13;96.05;99814.88;223619;1264;141931;-86
2023/08/08 04:28:20;;;;;;;10.00;2.40;;;;;;;13.15;95.99;99811.23;224046;1265;139054;-89
2023/08/08 04:33:20;;;;;;;11.80;2.80;;;;;;;13.15;95.94;99814.85;223368;1265;141013;-87
2023/08/08 04:38:21;;;;;;;10.00;2.20;;;;;;;13.17;95.82;99822.09;224046;1264;139236;-87
2023/08/08 04:43:22;;;;;;;7.60;2.30;;;;;;;13.23;95.43;99829.14;223333;1265;140136;-87
2023/08/08 04:48:22;;;;;;;7.90;2.50;;;;;;;13.29;94.85;99830.19;224047;1264;139246;-86
2023/08/08 04:53:23;;;;;;;6.20;2.20;;;;;;;13.36;94.21;99832.02;223452;1265;140440;-87
2023/08/08 04:58:23;;;;;;;7.30;2.50;;;;;;;13.43;93.52;99840.88;224027;1265;139117;-89
2023/08/08 05:03:24;;;;;;;5.20;2.20;;;;;;;13.50;92.54;99843.89;223524;1265;140015;-90
2023/08/08 05:08:24;;;;;;;11.60;2.40;;;;;;;13.59;91.87;99846.17;224070;1265;139094;-88
2023/08/08 05:13:26;;;;;;;6.20;1.80;;;;;;;13.68;91.24;99848.74;223446;1268;142125;-85
2023/08/08 05:18:26;;;;;;;5.70;2.20;;;;;;;13.78;90.98;99847.30;223865;1265;139222;-88
2023/08/08 05:23:27;;;;;;;5.60;1.90;;;;;;;13.90;90.03;99844.77;223296;1265;141341;-89
2023/08/08 05:28:27;;;;;;;6.30;2.30;;;;;;;14.03;89.35;99848.80;224148;1265;96297;-88
2023/08/08 05:33:28;;;;;;;5.80;2.30;;;;;;;14.15;88.20;99850.64;223282;1266;141396;-86
2023/08/08 05:38:29;;;;;;;7.40;2.40;;;;;;;14.26;87.50;99856.54;224049;1265;139671;-87
2023/08/08 05:43:29;;;;;;;8.00;2.10;;;;;;;14.32;87.01;99863.67;223463;1265;140384;-90
2023/08/08 05:48:31;;;;;;;5.50;2.10;;;;;;;14.43;87.11;99860.20;224082;1265;139688;-92
2023/08/08 05:53:35;;;;;;;6.10;2.10;;;;;;;14.54;85.94;99865.73;223435;1265;140319;-93
2023/08/08 05:58:40;;;;;;;4.00;1.80;;;;;;;14.58;85.72;99859.81;224024;1265;96021;-95
2023/08/08 06:03:42;;;;;;;6.80;2.00;;;;;;;14.62;85.29;99866.90;223307;1264;140076;-91
2023/08/08 06:08:42;;;;;;;5.80;2.00;;;;;;;14.64;84.93;99875.40;224151;1265;139297;-93
2023/08/08 06:13:43;;;;;;;6.40;2.10;;;;;;;14.64;84.82;99886.39;223554;1268;140208;-90
2023/08/08 06:18:44;;;;;;;5.00;1.80;;;;;;;14.66;84.93;99889.55;224030;1265;138611;-90
2023/08/08 06:23:47;;;;;;;9.10;2.80;;;;;;;14.70;85.29;99890.11;223510;1265;140306;-93
2023/08/08 06:28:47;;;;;;;7.80;2.10;;;;;;;14.77;85.06;99891.44;223949;1265;95838;-95
2023/08/08 06:33:48;;;;;;;4.30;1.50;;;;;;;14.87;84.83;99901.66;223213;1265;140457;-89
2023/08/08 06:38:49;;;;;;;6.10;2.00;;;;;;;14.96;85.33;99902.40;223977;1265;139300;-93
2023/08/08 06:43:49;;;;;;;10.10;2.50;;;;;;;15.10;84.95;99901.23;223447;1265;140916;-86
2023/08/08 09:43:18;;;;;;;6.00;1.70;;;;;;;17.32;75.27;99951.15;213050;1295;636604;-90
2023/08/08 09:48:19;;;;;;;5.50;1.80;;;;;;;17.36;75.38;99949.14;213256;1297;137286;-89
2023/08/08 09:53:20;;;;;;;6.40;1.80;;;;;;;17.69;74.93;99939.59;212555;1298;140342;-91
2023/08/08 09:58:21;;;;;;;5.90;1.80;;;;;;;18.20;74.06;99937.29;213213;1298;137697;-90
2023/08/08 10:03:23;;;;;;;4.00;2.40;;;;;;;18.44;71.21;99939.30;212896;1294;139776;-94
2023/08/08 10:08:23;;;;;;;5.70;1.60;;;;;;;18.48;70.06;99937.78;213267;1295;137909;-91
2023/08/08 10:13:26;;;;;;;5.30;1.40;;;;;;;18.62;69.66;99931.80;212968;1299;139482;-95
2023/08/08 10:18:27;;;;;;;4.60;1.50;;;;;;;19.15;69.34;99920.42;214306;1294;137385;-91
2023/08/08 10:23:39;;;;;;;3.40;1.30;;;;;;;19.50;66.84;99919.46;212865;1293;138759;-87
2023/08/08 10:28:40;;;;;;;3.20;1.30;;;;;;;19.59;66.55;99923.55;213894;1294;138229;-93
2023/08/08 10:33:42;;;;;;;6.60;1.70;;;;;;;19.60;65.65;99929.58;213088;1296;138339;-88
2023/08/08 10:38:46;;;;;;;5.00;1.50;;;;;;;19.69;65.84;99930.55;213687;1295;137629;-86
2023/08/08 10:43:51;;;;;;;6.10;1.50;;;;;;;19.74;65.66;99923.36;213554;1291;140414;-91
2023/08/08 10:48:54;;;;;;;4.10;1.30;;;;;;;19.76;66.23;99912.90;213586;1294;106579;-89
2023/08/08 10:53:55;;;;;;;5.20;1.60;;;;;;;19.80;65.82;99923.20;213546;1294;138574;-93
2023/08/08 10:58:56;;;;;;;5.70;1.90;;;;;;;19.60;64.19;99916.59;213544;1293;137526;-87
2023/08/08 11:03:57;;;;;;;3.10;1.30;;;;;;;19.36;64.58;99920.98;213511;1294;138692;-90
2023/08/08 11:09:02;;;;;;;5.30;1.70;;;;;;;19.40;65.92;99904.64;213059;1294;139414;-92
2023/08/08 11:14:29;;;;;;;3.80;1.30;;;;;;;19.68;66.63;99899.89;213470;1294;139946;-91
2023/08/08 11:19:30;;;;;;;4.40;1.70;;;;;;;20.11;66.06;99900.75;213326;1297;139547;-94
2023/08/08 11:24:35;;;;;;;4.60;1.60;;;;;;;20.50;62.99;99905.55;213875;1297;137117;-91
2023/08/08 11:29:37;;;;;;;4.80;1.60;;;;;;;20.51;60.22;99898.81;212924;1295;139936;-90
2023/08/08 11:34:38;;;;;;;3.30;1.60;;;;;;;20.67;61.10;99888.19;213594;1293;137306;-93
2023/08/08 11:39:38;;;;;;;3.10;1.50;;;;;;;20.77;60.42;99896.75;212807;1293;140669;-90
2023/08/08 11:44:40;;;;;;;3.40;1.50;;;;;;;20.67;60.44;99911.30;213708;1294;138208;-91
2023/08/08 11:49:41;;;;;;;4.80;2.40;;;;;;;20.84;60.09;99911.28;213252;1292;140234;-91
2023/08/08 11:54:42;;;;;;;8.40;2.00;;;;;;;20.88;59.63;99923.02;213655;1294;137486;-92
2023/08/08 11:59:49;;;;;;;6.50;1.70;;;;;;;20.53;61.58;99949.14;213349;1295;139738;-94
2023/08/08 12:04:49;;;;;;;4.50;1.40;;;;;;;19.78;66.84;99942.20;213976;1297;137984;-93
2023/08/08 12:09:52;;;;;;;2.70;1.20;;;;;;;19.53;68.93;99933.70;214009;1293;138810;-93
2023/08/08 12:14:57;;;;;;;3.60;1.50;;;;;;;19.47;69.35;99921.79;215123;1292;137099;-95
2023/08/08 12:20:11;;;;;;;3.10;1.70;;;;;;;19.57;68.40;99913.27;214241;1293;139062;-95
2023/08/08 12:25:12;;;;;;;6.70;2.00;;;;;;;19.52;66.15;99916.77;214352;1294;95811;-93
2023/08/08 12:30:13;;;;;;;4.30;1.90;;;;;;;19.43;66.00;99918.58;214220;1296;142484;-94
2023/08/08 12:35:16;;;;;;;4.10;1.60;;;;;;;19.31;65.69;99930.01;214204;1292;137140;-91
2023/08/08 12:40:19;;;;;;;4.00;1.60;;;;;;;19.32;67.44;99930.51;214043;1292;138336;-93
2023/08/08 12:45:20;;;;;;;7.20;2.00;;;;;;;19.50;68.25;99935.89;214673;1293;137363;-90
2023/08/08 12:50:21;;;;;;;5.80;1.80;;;;;;;19.77;66.14;99930.94;213723;1292;140031;-94
2023/08/08 12:55:22;;;;;;;5.00;1.40;;;;;;;19.74;63.64;99935.63;214581;1294;106710;-95
2023/08/08 13:00:23;;;;;;;5.10;1.40;;;;;;;19.92;63.60;99932.45;213797;1294;138376;-95
2023/08/08 13:05:26;;;;;;;3.80;1.70;;;;;;;20.16;61.90;99929.88;214295;1297;137978;-94
2023/08/08 13:10:29;;;;;;;6.50;1.90;;;;;;;20.37;61.20;99933.13;213607;1293;138695;-92
2023/08/08 13:15:29;;;;;;;7.40;2.20;;;;;;;20.56;61.40;99925.77;213920;1293;137416;-91
2023/08/08 13:20:30;;;;;;;5.10;1.80;;;;;;;20.57;61.45;99917.58;213541;1294;138639;-92
2023/08/08 13:25:34;;;;;;;7.90;2.00;;;;;;;20.48;61.71;99917.27;214261;1294;96595;-92
2023/08/08 13:31:02;;;;;;;4.40;1.90;;;;;;;20.40;61.55;99914.86;213961;1294;138909;-96
2023/08/08 13:36:03;;;;;;;8.60;2.10;;;;;;;20.30;61.83;99917.02;214729;1294;137566;-91
2023/08/08 13:41:04;;;;;;;4.20;1.60;;;;;;;20.17;63.18;99898.48;213654;1293;140991;-91
2023/08/08 13:46:07;;;;;;;3.80;1.50;;;;;;;20.12;61.93;99905.61;214173;1292;137455;-91
2023/08/08 13:51:09;;;;;;;5.60;2.00;;;;;;;20.05;62.21;99903.28;213536;1296;139505;-92
2023/08/08 13:56:11;;;;;;;4.70;1.90;;;;;;;20.10;62.64;99898.33;213782;1293;137854;-93
2023/08/08 14:01:12;;;;;;;6.80;1.90;;;;;;;20.19;61.16;99904.15;213817;1292;138633;-90
2023/08/08 14:06:12;;;;;;;2.80;1.70;;;;;;;20.33;61.64;99896.91;213928;1294;137276;-91
2023/08/08 14:11:13;;;;;;;5.00;1.90;;;;;;;20.49;61.42;99892.02;213723;1293;138943;-89
2023/08/08 14:16:17;;;;;;;3.40;1.60;;;;;;;20.61;61.05;99896.56;214278;1294;138061;-89
2023/08/08 14:21:30;;;;;;;4.40;1.80;;;;;;;20.64;59.96;99907.02;214484;1291;139465;-96
2023/08/08 14:26:31;;;;;;;9.20;2.10;;;;;;;20.54;60.57;99913.52;214629;1292;137757;-88
2023/08/08 14:31:36;;;;;;;4.20;2.00;;;;;;;20.27;61.13;99928.05;213462;1297;139275;-92
2023/08/08 14:36:37;;;;;;;3.30;1.70;;;;;;;20.09;62.60;99923.85;214611;1291;138071;-93
2023/08/08 14:41:38;;;;;;;5.50;1.70;;;;;;;20.10;62.62;99932.08;214980;1293;138781;-95
2023/08/08 14:46:44;;;;;;;3.90;1.70;;;;;;;19.97;63.55;99939.48;215493;1294;137338;-95
2023/08/08 14:51:45;;;;;;;7.00;2.10;;;;;;;19.80;65.24;99939.20;213755;1292;138941;-91
2023/08/08 16:44:20;;;;;;;6.50;2.30;;;;;;;15.86;91.75;99983.02;216016;1297;95282;-94
2023/08/08 16:49:20;;;;;;;4.70;2.40;;;;;;;15.84;92.64;99984.66;215365;1293;139599;-92
2023/08/08 16:54:22;;;;;;;6.10;2.30;;;;;;;15.78;93.32;99990.95;215984;1293;137820;-93
2023/08/08 16:59:23;;;;;;;8.50;2.50;;;;;;;15.73;94.24;99989.13;215437;1295;161724;-93
2023/08/08 17:04:24;;;;;;;4.60;2.60;;;;;;;15.68;94.88;99994.21;215850;1294;139240;-92
2023/08/08 17:09:25;;;;;;;6.00;2.40;;;;;;;15.59;95.10;100001.88;215243;1297;139654;-92
2023/08/08 17:14:25;;;;;;;7.50;2.60;;;;;;;15.51;95.98;100010.80;216128;1291;95669;-94
2023/08/08 17:19:26;;;;;;;6.90;2.70;;;;;;;15.43;97.04;100013.70;215513;1291;140109;-93
2023/08/08 17:24:26;;;;;;;7.30;3.40;;;;;;;15.34;98.11;100021.76;216044;1291;138054;-91
2023/08/08 17:29:27;;;;;;;5.40;2.50;;;;;;;15.24;99.04;100025.59;215563;1296;139059;-88
2023/08/08 17:34:27;;;;;;;6.10;2.70;;;;;;;15.14;99.63;100020.20;215991;1291;137228;-91
2023/08/08 17:39:28;;;;;;;6.20;2.60;;;;;;;15.07;99.75;100007.78;215470;1297;139629;-90
2023/08/08 17:44:29;;;;;;;8.90;3.20;;;;;;;15.00;99.73;100007.00;216107;1291;95289;-92
2023/08/08 17:49:29;;;;;;;5.90;2.80;;;;;;;14.95;99.88;100011.35;215459;1292;139200;-90
2023/08/08 17:54:30;;;;;;;6.50;3.00;;;;;;;14.92;99.83;100007.36;216142;1291;138038;-92
2023/08/08 17:59:30;;;;;;;8.90;3.50;;;;;;;14.90;99.89;100008.96;215708;1291;139261;-91
2023/08/08 18:04:31;;;;;;;7.30;3.40;;;;;;;14.87;100.00;100010.13;216031;1291;138365;-89
2023/08/08 18:09:31;;;;;;;7.80;3.80;;;;;;;14.85;100.00;100008.55;215529;1291;140015;-89
2023/08/08 18:14:32;;;;;;;9.00;3.90;;;;;;;14.83;100.00;100002.25;216155;1291;95833;-89
2023/08/08 18:19:32;;;;;;;10.20;4.10;;;;;;;14.80;100.00;100009.98;215723;1296;142778;-88
2023/08/08 18:24:35;;;;;;;10.10;4.50;;;;;;;14.76;100.00;100010.88;216204;1291;138432;-88
2023/08/08 18:29:35;;;;;;;8.10;4.30;;;;;;;14.73;100.00;100017.80;215434;1291;140193;-87
2023/08/08 18:34:36;;;;;;;8.70;3.60;;;;;;;14.68;100.00;100018.02;216048;1291;138757;-87
2023/08/08 18:39:36;;;;;;;8.70;3.80;;;;;;;14.61;100.00;100019.39;215418;1291;139947;-89
2023/08/08 18:44:37;;;;;;;8.80;3.30;;;;;;;14.49;100.00;100029.16;216110;1291;96498;-87
2023/08/08 18:49:37;;;;;;;7.10;3.30;;;;;;;14.37;100.00;100030.80;215617;1291;141474;-87
2023/08/08 18:54:37;;;;;;;9.80;3.70;;;;;;;14.27;100.00;100041.52;216134;1291;138416;-88
2023/08/08 18:59:38;;;;;;;7.40;4.00;;;;;;;14.16;100.00;100048.80;215642;1291;141359;-88
2023/08/08 19:04:38;;;;;;;9.70;4.10;;;;;;;14.05;100.00;100058.21;216150;1291;138594;-88
2023/08/08 19:09:39;;;;;;;10.30;4.20;;;;;;;13.99;100.00;100062.22;215682;1291;140675;-88
2023/08/08 19:14:39;;;;;;;8.20;4.40;;;;;;;13.93;100.00;100062.74;216291;1291;96584;-89
2023/08/08 19:19:40;;;;;;;10.10;4.30;;;;;;;13.85;100.00;100065.19;215735;1291;142620;-88
2023/08/08 19:24:40;;;;;;;10.00;4.60;;;;;;;13.78;100.00;100063.89;215966;1296;139614;-89
2023/08/08 19:29:41;;;;;;;11.50;4.80;;;;;;;13.72;100.00;100071.92;215497;1291;142051;-88
2023/08/08 19:34:42;;;;;;;15.20;6.20;;;;;;;13.69;100.00;100075.66;216134;1291;138761;-88
2023/08/08 19:39:43;;;;;;;11.90;5.30;;;;;;;13.68;100.00;100079.85;215448;1291;140755;-89
2023/08/08 19:44:43;;;;;;;10.30;5.10;;;;;;;13.67;100.00;100081.75;216107;1292;96617;-88
2023/08/08 19:49:44;;;;;;;9.70;5.00;;;;;;;13.67;100.00;100074.00;215483;1291;141516;-89
2023/08/08 19:54:44;;;;;;;11.30;4.80;;;;;;;13.67;100.00;100083.02;215957;1291;139784;-90
2023/08/08 19:59:44;;;;;;;11.60;4.50;;;;;;;13.69;100.00;100084.66;215671;1291;140580;-88
2023/08/08 20:04:45;;;;;;;12.40;4.60;;;;;;;13.68;100.00;100073.05;215962;1291;138765;-89
2023/08/08 20:09:46;;;;;;;9.10;4.40;;;;;;;13.66;100.00;100076.86;215443;1292;140805;-89
2023/08/08 20:14:46;;;;;;;8.50;4.60;;;;;;;13.68;100.00;100081.59;216170;1291;97112;-90
2023/08/08 20:19:47;;;;;;;8.90;3.80;;;;;;;13.67;100.00;100092.18;215683;1291;141712;-89
2023/08/08 20:24:47;;;;;;;10.90;3.80;;;;;;;13.63;100.00;100097.10;216256;1296;138571;-92
2023/08/08 20:29:48;;;;;;;4.80;2.20;;;;;;;13.58;100.00;100089.95;215704;1291;141074;-89
2023/08/08 20:34:48;;;;;;;6.00;2.60;;;;;;;13.53;100.00;100082.96;216242;1292;138860;-90
2023/08/08 20:39:49;;;;;;;5.50;2.30;;;;;;;13.49;100.00;100085.19;215725;1291;140053;-90
2023/08/08 20:44:49;;;;;;;6.90;2.30;;;;;;;13.46;100.00;100087.42;215996;1293;96621;-92
2023/08/08 20:49:50;;;;;;;4.50;2.00;;;;;;;13.35;100.00;100085.98;215351;1293;140173;-93
2023/08/08 20:54:50;;;;;;;5.30;2.20;;;;;;;13.27;100.00;100084.30;215808;1294;138633;-89
2023/08/08 20:59:51;;;;;;;4.70;2.00;;;;;;;13.25;100.00;100085.89;215438;1293;140528;-88
2023/08/08 21:04:52;;;;;;;6.60;2.00;;;;;;;13.23;100.00;100088.74;215712;1293;138577;-88
2023/08/08 21:09:52;;;;;;;5.30;2.20;;;;;;;13.17;100.00;100094.29;215364;1294;140639;-89
2023/08/08 21:14:53;;;;;;;6.10;2.30;;;;;;;13.09;100.00;100093.38;215926;1293;96514;-86
2023/08/08 21:19:53;;;;;;;8.10;2.60;;;;;;;13.03;100.00;100079.99;215336;1294;140782;-89
2023/08/08 21:24:54;;;;;;;7.80;3.00;;;;;;;13.00;100.00;100086.95;215785;1295;138588;-88
2023/08/08 21:29:54;;;;;;;7.00;3.20;;;;;;;12.98;100.00;100097.30;215381;1293;140399;-89
2023/08/08 21:34:54;;;;;;;10.50;3.30;;;;;;;12.95;100.00;100092.40;215892;1294;138836;-86
2023/08/08 21:39:55;;;;;;;8.10;3.30;;;;;;;12.92;100.00;100091.29;215453;1293;139653;-87
2023/08/08 21:44:55;;;;;;;10.00;4.70;;;;;;;12.92;100.00;100094.52;215642;1297;96634;-89
2023/08/08 21:49:57;;;;;;;9.20;4.10;;;;;;;12.91;100.00;100090.20;215241;1293;140533;-88
2023/08/08 21:54:57;;;;;;;8.40;4.30;;;;;;;12.91;100.00;100088.23;215591;1294;211925;-90
2023/08/08 21:59:57;;;;;;;7.20;3.60;;;;;;;12.91;100.00;100087.98;215979;1295;96643;-90
2023/08/08 22:04:58;;;;;;;8.10;4.10;;;;;;;12.92;100.00;100088.70;215828;1294;138844;-91
2023/08/08 22:09:58;;;;;;;8.90;3.80;;;;;;;12.91;100.00;100090.76;215487;1293;140359;-90
2023/08/08 22:14:59;;;;;;;9.50;4.30;;;;;;;12.90;100.00;100096.44;215893;1293;96597;-90
2023/08/08 22:19:59;;;;;;;8.80;3.70;;;;;;;12.90;100.00;100104.09;215280;1297;139109;-95
2023/08/08 22:25:00;;;;;;;7.70;3.60;;;;;;;12.89;100.00;100104.40;215807;1293;138478;-92
2023/08/08 22:30:01;;;;;;;7.00;3.60;;;;;;;12.89;100.00;100111.35;215416;1294;139958;-90
2023/08/08 22:35:01;;;;;;;8.80;3.40;;;;;;;12.88;100.00;100120.52;215895;1294;139586;-89
2023/08/08 22:40:03;;;;;;;7.80;2.80;;;;;;;12.87;100.00;100119.16;215363;1293;139661;-90
2023/08/08 22:45:04;;;;;;;5.90;2.70;;;;;;;12.83;100.00;100118.15;215937;1293;139034;-89
2023/08/08 22:50:05;;;;;;;7.00;3.00;;;;;;;12.81;100.00;100129.84;215399;1297;141776;-88
2023/08/08 22:55:06;;;;;;;7.40;2.90;;;;;;;12.78;100.00;100122.75;215955;1293;137282;-86
2023/08/08 23:00:07;;;;;;;10.10;2.90;;;;;;;12.74;100.00;100121.58;215213;1294;140352;-88
2023/08/08 23:05:08;;;;;;;7.90;2.80;;;;;;;12.72;100.00;100122.36;215820;1293;138962;-85
2023/08/08 23:10:09;;;;;;;6.20;2.80;;;;;;;12.70;100.00;100119.85;215428;1294;139349;-86
2023/08/08 23:15:10;;;;;;;5.60;2.40;;;;;;;12.72;100.00;100122.29;215732;1297;139690;-88
2023/08/08 23:20:10;;;;;;;7.30;2.80;;;;;;;12.74;100.00;100119.84;215477;1293;140195;-89
2023/08/08 23:25:11;;;;;;;7.40;2.50;;;;;;;12.74;100.00;100124.17;215855;1293;139559;-88
2023/08/08 23:30:11;;;;;;;8.60;3.00;;;;;;;12.72;100.00;100123.86;215326;1295;140338;-88
2023/08/08 23:35:12;;;;;;;6.30;2.70;;;;;;;12.68;100.00;100119.38;215767;1295;139268;-87
2023/08/08 23:40:15;;;;;;;7.80;2.40;;;;;;;12.63;100.00;100118.45;215361;1293;140650;-87
2023/08/08 23:45:16;;;;;;;7.10;2.70;;;;;;;12.59;100.00;100118.29;215845;1295;139389;-87
2023/08/08 23:50:16;;;;;;;6.40;3.10;;;;;;;12.55;100.00;100119.80;215474;1294;141116;-86
2023/08/08 23:55:16;;;;;;;7.00;2.70;;;;;;;12.53;100.00;100111.05;215907;1295;138445;-86
